Time;durP1;ratioP1;P1;durP2;ratioP2;P2;SDS_P1;SDS_P2;PMS_P1;PMS_P2;Temp;Humidity;BMP_temperature;BMP_pressure;BME280_temperature;BME280_humidity;BME280_pressure;Samples;Min_cycle;Max_cycle;Signal;HPM_P1;HPM_P2
2021/01/15 00:00:08;;;;;;;7.50;4.63;;;0.90;99.90;;;;;;4891995;29;20198;-73
2021/01/15 00:02:41;;;;;;;8.95;3.70;;;0.90;99.90;;;;;;4894814;29;20220;-74
2021/01/15 00:05:14;;;;;;;5.47;3.50;;;0.80;99.90;;;;;;4895824;29;20226;-75
2021/01/15 00:07:48;;;;;;;4.85;3.47;;;0.80;99.90;;;;;;4896108;29;20254;-74
2021/01/15 00:10:20;;;;;;;5.30;3.78;;;0.90;99.90;;;;;;4895219;29;20559;-75
2021/01/15 00:12:53;;;;;;;5.10;4.03;;;0.80;99.90;;;;;;4897305;29;20299;-73
2021/01/15 00:15:26;;;;;;;6.65;3.53;;;0.80;99.90;;;;;;4897663;29;20260;-74
2021/01/15 00:17:59;;;;;;;5.70;3.30;;;0.70;99.90;;;;;;4892168;29;20189;-74
2021/01/15 00:20:32;;;;;;;6.15;3.95;;;0.80;99.90;;;;;;4893952;29;20284;-74
2021/01/15 00:23:04;;;;;;;5.85;3.72;;;0.80;99.90;;;;;;4891556;29;21125;-74
2021/01/15 00:25:37;;;;;;;5.00;3.90;;;0.80;99.90;;;;;;4894060;29;20201;-74
2021/01/15 00:28:10;;;;;;;4.03;3.63;;;0.70;99.90;;;;;;4895767;29;20252;-75
2021/01/15 00:30:43;;;;;;;5.10;4.03;;;0.70;99.90;;;;;;4878482;29;20718;-74
2021/01/15 00:33:16;;;;;;;6.13;3.70;;;0.70;99.90;;;;;;4897334;29;20216;-74
2021/01/15 00:35:49;;;;;;;8.57;4.10;;;0.70;99.90;;;;;;4897311;29;20197;-74
2021/01/15 00:38:21;;;;;;;5.85;3.60;;;0.80;99.90;;;;;;4896911;29;20260;-74
2021/01/15 00:41:00;;;;;;;4.90;3.75;;;0.70;99.90;;;;;;4890440;29;20216;-75
2021/01/15 00:43:33;;;;;;;7.07;4.03;;;0.70;99.90;;;;;;4891543;29;20360;-74
2021/01/15 00:46:07;;;;;;;5.32;3.85;;;0.70;99.90;;;;;;4891449;29;20621;-75
2021/01/15 00:48:41;;;;;;;4.75;3.75;;;0.70;99.90;;;;;;4894822;29;20621;-74
2021/01/15 00:51:13;;;;;;;5.15;4.07;;;0.70;99.90;;;;;;4894634;29;20774;-75
2021/01/15 00:53:52;;;;;;;5.93;3.38;;;0.80;99.90;;;;;;4894956;29;20987;-74
2021/01/15 00:56:24;;;;;;;5.32;3.58;;;0.70;99.90;;;;;;4896015;29;20212;-75
2021/01/15 00:58:57;;;;;;;5.32;3.13;;;0.80;99.90;;;;;;4896447;29;20237;-75
2021/01/15 01:01:30;;;;;;;4.35;2.85;;;0.80;99.90;;;;;;4896599;29;20196;-74
2021/01/15 01:03:57;;;;;;;6.63;3.45;;;0.80;99.90;;;;;;4896138;29;20189;-74
2021/01/15 01:06:30;;;;;;;3.53;3.15;;;0.80;99.90;;;;;;4889346;29;20238;-74
2021/01/15 01:09:03;;;;;;;4.38;3.60;;;0.70;99.90;;;;;;4892183;29;20663;-74
2021/01/15 01:11:36;;;;;;;7.07;3.95;;;0.70;99.90;;;;;;4893915;29;20643;-75
2021/01/15 01:14:08;;;;;;;4.45;2.78;;;0.70;99.90;;;;;;4894001;29;20205;-74
2021/01/15 01:16:41;;;;;;;4.03;3.13;;;0.80;99.90;;;;;;4894284;29;20199;-74
2021/01/15 01:19:14;;;;;;;6.38;3.95;;;0.70;99.90;;;;;;4896719;29;20591;-74
2021/01/15 01:21:47;;;;;;;2.80;2.53;;;0.80;99.90;;;;;;4891078;29;20218;-73
2021/01/15 01:24:19;;;;;;;4.50;3.40;;;0.80;99.90;;;;;;4894207;29;20204;-73
2021/01/15 01:26:51;;;;;;;3.83;3.20;;;0.80;99.90;;;;;;4893986;29;20284;-74
2021/01/15 01:29:18;;;;;;;4.57;3.03;;;0.80;99.90;;;;;;4894676;29;20709;-75
2021/01/15 01:31:51;;;;;;;7.15;3.85;;;0.80;99.90;;;;;;4894837;29;20325;-75
2021/01/15 01:34:24;;;;;;;3.88;3.20;;;0.80;99.90;;;;;;4895998;29;20238;-74
2021/01/15 01:36:56;;;;;;;2.55;2.35;;;0.90;99.90;;;;;;4895797;29;20207;-75
2021/01/15 01:39:29;;;;;;;4.30;3.00;;;0.80;99.90;;;;;;4896105;29;20229;-74
2021/01/15 01:42:01;;;;;;;3.45;3.03;;;0.90;99.90;;;;;;4889393;29;20218;-73
2021/01/15 01:44:34;;;;;;;4.75;2.60;;;0.80;99.90;;;;;;4890192;29;20231;-74
2021/01/15 01:47:07;;;;;;;4.03;2.80;;;0.90;99.90;;;;;;4886511;29;20315;-74
2021/01/15 01:49:40;;;;;;;3.15;2.85;;;0.90;99.90;;;;;;4893188;29;20196;-74
2021/01/15 01:52:13;;;;;;;4.65;3.20;;;0.80;99.90;;;;;;4899365;29;20591;-74
2021/01/15 01:54:47;;;;;;;2.65;2.45;;;0.90;99.90;;;;;;4913880;29;20245;-74
2021/01/15 01:57:20;;;;;;;5.68;3.20;;;0.90;99.90;;;;;;4909308;29;20216;-74
2021/01/15 01:59:52;;;;;;;3.28;2.97;;;0.90;99.90;;;;;;4914405;29;20719;-74
2021/01/15 02:02:25;;;;;;;3.42;3.13;;;0.90;99.90;;;;;;4913867;29;20242;-74
2021/01/15 02:04:58;;;;;;;3.28;2.80;;;0.90;99.90;;;;;;4908416;29;20709;-74
2021/01/15 02:07:31;;;;;;;3.90;2.95;;;0.90;99.90;;;;;;4911169;29;20227;-75
2021/01/15 02:10:10;;;;;;;4.07;2.90;;;1.00;99.90;;;;;;4895439;29;20286;-74
2021/01/15 02:12:55;;;;;;;4.60;3.65;;;1.00;99.90;;;;;;4911968;29;20226;-74
2021/01/15 02:15:32;;;;;;;4.43;3.05;;;1.00;99.90;;;;;;4907587;29;20207;-75
2021/01/15 02:18:10;;;;;;;4.15;3.28;;;1.10;99.90;;;;;;4914147;29;20199;-73
2021/01/15 02:20:59;;;;;;;6.95;3.38;;;1.10;99.90;;;;;;4914305;29;20202;-74
2021/01/15 02:23:38;;;;;;;6.68;3.67;;;1.10;99.90;;;;;;4909547;29;20256;-74
2021/01/15 02:26:33;;;;;;;4.72;3.42;;;1.10;99.90;;;;;;4910112;29;20960;-74
2021/01/15 02:29:15;;;;;;;4.55;3.92;;;1.20;99.90;;;;;;4909317;29;20300;-75
2021/01/15 02:32:06;;;;;;;7.60;4.70;;;1.20;99.90;;;;;;4911279;29;20309;-74
2021/01/15 02:34:57;;;;;;;5.00;4.18;;;1.30;99.90;;;;;;4893535;29;20553;-74
2021/01/15 02:37:38;;;;;;;7.50;4.70;;;1.20;99.90;;;;;;4906834;29;20218;-75
2021/01/15 02:40:17;;;;;;;8.68;4.97;;;1.30;99.90;;;;;;4914199;29;20199;-73
2021/01/15 02:42:51;;;;;;;8.43;4.80;;;1.20;99.90;;;;;;4913995;29;20559;-73
2021/01/15 02:45:24;;;;;;;6.13;3.80;;;1.30;99.90;;;;;;4914606;29;20200;-74
2021/01/15 02:47:52;;;;;;;8.90;4.47;;;1.30;99.90;;;;;;4911250;29;20572;-74
2021/01/15 02:50:33;;;;;;;5.10;4.30;;;1.30;99.90;;;;;;4891050;29;20278;-75
2021/01/15 02:53:12;;;;;;;6.30;4.35;;;1.30;99.90;;;;;;4893868;29;20402;-74
2021/01/15 02:55:39;;;;;;;5.38;4.20;;;1.30;99.90;;;;;;4912348;29;20616;-73
2021/01/15 02:58:12;;;;;;;6.55;3.80;;;1.40;99.90;;;;;;4911192;29;20247;-74
2021/01/15 03:00:45;;;;;;;6.28;4.60;;;1.40;99.90;;;;;;4912435;29;20211;-75
2021/01/15 03:03:28;;;;;;;5.28;3.92;;;1.30;99.90;;;;;;4913728;29;20302;-75
2021/01/15 03:06:07;;;;;;;7.22;4.60;;;1.40;99.90;;;;;;4913664;29;20226;-74
2021/01/15 03:08:43;;;;;;;7.57;4.53;;;1.40;99.90;;;;;;4913783;29;20192;-73
2021/01/15 03:11:17;;;;;;;5.28;4.30;;;1.30;99.90;;;;;;4908025;29;20199;-74
2021/01/15 03:13:51;;;;;;;6.13;4.15;;;1.40;99.90;;;;;;4908223;29;20200;-75
2021/01/15 03:16:26;;;;;;;7.50;3.97;;;1.40;99.90;;;;;;4905390;29;20236;-74
2021/01/15 03:18:59;;;;;;;7.35;4.03;;;1.40;99.90;;;;;;4894816;29;20201;-73
2021/01/15 03:21:38;;;;;;;5.43;4.50;;;1.40;99.90;;;;;;4906002;29;20192;-75
2021/01/15 03:24:11;;;;;;;7.45;4.70;;;1.40;99.90;;;;;;4895921;29;20277;-75
2021/01/15 03:26:44;;;;;;;7.82;4.47;;;1.50;99.90;;;;;;4913944;29;20231;-74
2021/01/15 03:29:13;;;;;;;9.05;5.25;;;1.40;99.90;;;;;;4915613;29;20253;-74
2021/01/15 03:31:45;;;;;;;6.60;4.65;;;1.40;99.90;;;;;;4916037;29;20894;-74
2021/01/15 03:34:18;;;;;;;7.90;5.10;;;1.50;99.90;;;;;;4908894;29;20580;-74
2021/01/15 03:36:51;;;;;;;9.13;4.97;;;1.50;99.90;;;;;;4912726;29;20710;-75
2021/01/15 03:39:24;;;;;;;8.45;5.18;;;1.50;99.90;;;;;;4915222;29;20192;-74
2021/01/15 03:41:56;;;;;;;7.28;5.28;;;1.50;99.90;;;;;;4914982;29;20543;-74
2021/01/15 03:44:29;;;;;;;5.47;4.82;;;1.50;99.90;;;;;;4908307;29;20283;-74
2021/01/15 03:47:01;;;;;;;5.18;4.32;;;1.50;99.90;;;;;;4916665;29;20230;-75
2021/01/15 03:49:35;;;;;;;8.82;5.30;;;1.50;99.90;;;;;;4917496;29;20597;-74
2021/01/15 03:52:10;;;;;;;5.13;4.20;;;1.50;99.90;;;;;;4914789;29;20219;-75
2021/01/15 03:54:43;;;;;;;7.30;4.90;;;1.60;99.90;;;;;;4895261;29;20620;-75
2021/01/15 03:57:15;;;;;;;6.97;4.50;;;1.60;99.90;;;;;;4891176;29;20203;-74
2021/01/15 03:59:48;;;;;;;7.47;5.53;;;1.60;99.90;;;;;;4894756;29;20196;-74
2021/01/15 04:02:20;;;;;;;5.85;4.30;;;1.60;99.90;;;;;;4895965;29;20213;-75
2021/01/15 04:04:53;;;;;;;6.72;4.68;;;1.60;99.90;;;;;;4895777;29;20433;-74
2021/01/15 04:07:26;;;;;;;7.15;5.00;;;1.60;99.90;;;;;;4895371;29;20251;-74
2021/01/15 04:09:59;;;;;;;6.78;4.60;;;1.60;99.90;;;;;;4897360;29;20426;-74
2021/01/15 04:12:31;;;;;;;5.07;4.45;;;1.70;99.90;;;;;;4897167;29;20255;-74
2021/01/15 04:15:05;;;;;;;5.20;4.50;;;1.60;99.90;;;;;;4897966;29;20189;-73
2021/01/15 04:17:39;;;;;;;6.75;4.00;;;1.60;99.90;;;;;;4870996;29;20292;-74
2021/01/15 04:20:13;;;;;;;6.20;4.60;;;1.70;99.90;;;;;;4892085;29;20566;-75
2021/01/15 04:22:50;;;;;;;6.80;4.82;;;1.70;99.90;;;;;;4889503;29;20613;-74
2021/01/15 04:25:23;;;;;;;6.47;5.20;;;1.70;99.90;;;;;;4895230;29;20203;-74
2021/01/15 04:27:55;;;;;;;5.93;4.43;;;1.70;99.90;;;;;;4895549;29;20273;-74
2021/01/15 04:30:28;;;;;;;9.38;5.07;;;1.70;99.90;;;;;;4897265;29;20197;-74
2021/01/15 04:33:00;;;;;;;5.55;4.57;;;1.70;99.90;;;;;;4896593;29;20275;-74
2021/01/15 04:35:33;;;;;;;7.88;4.72;;;1.70;99.90;;;;;;4890331;29;20188;-74
2021/01/15 04:38:06;;;;;;;7.78;5.38;;;1.70;99.90;;;;;;4897265;29;20305;-75
2021/01/15 04:40:39;;;;;;;5.45;4.82;;;1.80;99.90;;;;;;4889215;29;20225;-74
2021/01/15 04:43:19;;;;;;;7.82;4.40;;;1.70;99.90;;;;;;4890530;29;20564;-75
2021/01/15 04:45:53;;;;;;;7.38;5.38;;;1.80;99.90;;;;;;4890219;29;20507;-74
2021/01/15 04:48:29;;;;;;;6.68;4.68;;;1.80;99.90;;;;;;4893925;29;20196;-74
2021/01/15 04:51:03;;;;;;;7.55;5.25;;;1.80;99.90;;;;;;4894677;29;20196;-74
2021/01/15 04:53:43;;;;;;;12.93;6.63;;;1.80;99.90;;;;;;4896230;29;20228;-75
2021/01/15 04:56:16;;;;;;;9.88;6.97;;;1.80;99.90;;;;;;4896873;29;20228;-74
2021/01/15 04:58:49;;;;;;;8.23;6.47;;;1.80;99.90;;;;;;4897154;29;20554;-75
2021/01/15 05:01:17;;;;;;;11.60;6.90;;;1.80;99.90;;;;;;4894837;29;21163;-75
2021/01/15 05:03:50;;;;;;;10.80;7.15;;;1.80;99.90;;;;;;4890555;29;20219;-73
2021/01/15 05:06:30;;;;;;;12.13;8.75;;;1.80;99.90;;;;;;4892811;29;20686;-74
2021/01/15 05:09:05;;;;;;;11.23;8.15;;;1.80;99.90;;;;;;4894937;29;20278;-75
2021/01/15 05:11:38;;;;;;;15.15;9.25;;;1.90;99.90;;;;;;4893761;29;20282;-75
2021/01/15 05:14:09;;;;;;;13.88;9.52;;;1.90;99.90;;;;;;4899021;29;20287;-75
2021/01/15 05:16:43;;;;;;;14.60;8.15;;;1.90;99.90;;;;;;4889734;29;20193;-74
2021/01/15 05:19:16;;;;;;;12.07;8.93;;;1.80;99.90;;;;;;4879713;29;20556;-74
2021/01/15 05:21:50;;;;;;;14.10;9.27;;;1.90;99.90;;;;;;4890090;29;20647;-74
2021/01/15 05:24:23;;;;;;;11.73;8.40;;;1.80;99.90;;;;;;4884799;29;20196;-75
2021/01/15 05:26:56;;;;;;;12.73;8.25;;;1.90;99.90;;;;;;4888750;29;20641;-75
2021/01/15 05:29:29;;;;;;;14.57;9.40;;;1.90;99.90;;;;;;4893243;29;20201;-75
2021/01/15 05:32:01;;;;;;;13.65;8.85;;;1.90;99.90;;;;;;4894287;29;20581;-75
2021/01/15 05:34:34;;;;;;;13.85;9.68;;;1.90;99.90;;;;;;4893545;29;20199;-75
2021/01/15 05:37:09;;;;;;;13.48;9.25;;;1.90;99.90;;;;;;4894773;29;20204;-75
2021/01/15 05:39:44;;;;;;;14.02;8.98;;;2.00;99.90;;;;;;4894931;29;20214;-73
2021/01/15 05:42:18;;;;;;;13.40;9.02;;;1.90;99.90;;;;;;4895657;29;20630;-73
2021/01/15 05:44:50;;;;;;;12.30;8.73;;;1.90;99.90;;;;;;4895427;29;20194;-74
2021/01/15 05:47:17;;;;;;;12.82;9.15;;;2.00;99.90;;;;;;4885976;29;20235;-74
2021/01/15 05:49:55;;;;;;;11.65;9.00;;;2.00;99.90;;;;;;4888839;29;20197;-74
2021/01/15 05:52:28;;;;;;;14.60;8.65;;;2.00;99.90;;;;;;4896153;29;20591;-73
2021/01/15 05:55:10;;;;;;;11.85;8.60;;;2.00;99.90;;;;;;4912912;29;20684;-76
2021/01/15 05:57:43;;;;;;;11.90;8.02;;;2.00;99.90;;;;;;4912589;29;20210;-76
2021/01/15 06:00:39;;;;;;;12.35;8.25;;;2.00;99.90;;;;;;4914104;29;20255;-75
2021/01/15 06:03:15;;;;;;;11.68;8.52;;;2.00;99.90;;;;;;4898086;29;20302;-75
2021/01/15 06:05:50;;;;;;;11.00;8.13;;;2.00;99.90;;;;;;4906012;29;20560;-74
2021/01/15 06:08:23;;;;;;;10.90;7.38;;;2.00;99.90;;;;;;4911327;29;20210;-75
2021/01/15 06:10:56;;;;;;;11.20;7.60;;;2.00;99.90;;;;;;4912124;29;20202;-74
2021/01/15 06:13:38;;;;;;;10.30;7.38;;;2.00;99.90;;;;;;4912864;29;20212;-76
2021/01/15 06:16:18;;;;;;;9.25;7.38;;;2.00;99.90;;;;;;4897823;29;20208;-75
2021/01/15 06:19:00;;;;;;;12.02;7.85;;;2.10;99.90;;;;;;4896835;29;20199;-77
2021/01/15 06:21:34;;;;;;;13.10;7.38;;;2.10;99.90;;;;;;4884847;29;20203;-76
2021/01/15 06:24:09;;;;;;;11.38;7.47;;;2.10;99.90;;;;;;4906472;29;20260;-75
2021/01/15 06:26:44;;;;;;;11.35;8.20;;;2.10;99.90;;;;;;4912426;29;20305;-75
2021/01/15 06:29:20;;;;;;;10.10;6.95;;;2.10;99.90;;;;;;4912080;29;20196;-73
2021/01/15 06:31:53;;;;;;;10.05;7.05;;;2.10;99.90;;;;;;4912405;29;20216;-75
2021/01/15 06:34:29;;;;;;;10.85;7.82;;;2.10;99.90;;;;;;4914097;29;20198;-76
2021/01/15 06:37:03;;;;;;;9.63;7.70;;;2.20;99.90;;;;;;4914391;29;20322;-75
2021/01/15 06:39:35;;;;;;;16.63;7.85;;;2.10;99.90;;;;;;4906970;29;20247;-73
2021/01/15 06:42:10;;;;;;;8.85;6.57;;;2.10;99.90;;;;;;4910971;29;20217;-75
2021/01/15 06:44:54;;;;;;;9.88;6.90;;;2.20;99.90;;;;;;4908251;29;20217;-76
2021/01/15 06:47:28;;;;;;;10.50;7.25;;;2.20;99.90;;;;;;4911233;29;20234;-75
2021/01/15 06:50:03;;;;;;;12.45;7.25;;;2.10;99.90;;;;;;4912317;29;20195;-75
2021/01/15 06:52:37;;;;;;;12.60;8.55;;;2.10;99.90;;;;;;4907980;29;20723;-78
2021/01/15 06:55:15;;;;;;;14.57;7.78;;;2.20;99.90;;;;;;4879920;29;20211;-78
2021/01/15 06:57:50;;;;;;;17.55;8.50;;;2.20;99.90;;;;;;4894715;29;20651;-75
2021/01/15 07:00:25;;;;;;;12.88;8.55;;;2.10;99.90;;;;;;4894936;29;20291;-75
2021/01/15 07:03:15;;;;;;;11.13;8.75;;;2.10;99.90;;;;;;4887471;29;20769;-75
2021/01/15 07:05:47;;;;;;;11.98;8.52;;;2.10;99.90;;;;;;4894061;29;20562;-75
2021/01/15 07:08:23;;;;;;;12.85;8.75;;;2.20;99.90;;;;;;4896039;29;20280;-76
2021/01/15 07:10:56;;;;;;;13.02;8.75;;;2.20;99.90;;;;;;4896024;29;20203;-74
2021/01/15 07:13:31;;;;;;;13.65;9.07;;;2.30;99.90;;;;;;4895935;29;20223;-76
2021/01/15 07:16:13;;;;;;;13.35;9.00;;;2.20;99.90;;;;;;4891768;29;20200;-73
2021/01/15 07:18:50;;;;;;;14.15;10.02;;;2.30;99.90;;;;;;4878790;29;20193;-74
2021/01/15 07:21:34;;;;;;;16.48;9.73;;;2.20;99.90;;;;;;4896737;29;20222;-73
2021/01/15 07:24:08;;;;;;;13.63;9.32;;;2.20;99.90;;;;;;4895829;29;20552;-74
2021/01/15 07:26:43;;;;;;;16.98;10.15;;;2.20;99.90;;;;;;4865178;29;20222;-74
2021/01/15 07:29:17;;;;;;;17.63;11.25;;;2.20;99.90;;;;;;4897993;29;20288;-74
2021/01/15 07:31:58;;;;;;;14.48;9.10;;;2.20;99.90;;;;;;4898142;29;20311;-75
2021/01/15 07:34:31;;;;;;;13.52;9.68;;;2.20;99.90;;;;;;4897984;29;20327;-76
2021/01/15 07:37:17;;;;;;;13.70;10.00;;;2.20;99.90;;;;;;4895353;29;20291;-75
2021/01/15 07:40:00;;;;;;;14.77;10.35;;;2.20;99.90;;;;;;4876529;29;20269;-76
2021/01/15 07:42:42;;;;;;;15.85;11.15;;;2.20;99.90;;;;;;4865286;29;20208;-76
2021/01/15 07:45:39;;;;;;;17.50;11.60;;;2.20;99.90;;;;;;4881858;29;20197;-76
2021/01/15 07:48:12;;;;;;;16.30;12.50;;;2.10;99.90;;;;;;4866659;29;20559;-79
2021/01/15 07:50:46;;;;;;;16.70;11.65;;;2.20;99.90;;;;;;4897128;29;20670;-76
2021/01/15 07:53:21;;;;;;;15.10;9.90;;;2.20;99.90;;;;;;4882912;29;20243;-74
2021/01/15 07:55:56;;;;;;;17.92;10.38;;;2.20;99.90;;;;;;4898402;29;20286;-75
2021/01/15 07:58:45;;;;;;;18.88;12.15;;;2.20;99.90;;;;;;4905343;29;20191;-75
2021/01/15 08:01:20;;;;;;;18.75;12.05;;;2.20;99.90;;;;;;4879033;29;20209;-75
2021/01/15 08:03:56;;;;;;;20.85;13.48;;;2.20;99.90;;;;;;4881630;29;20199;-75
2021/01/15 08:06:29;;;;;;;20.88;14.20;;;2.20;99.90;;;;;;4905174;29;20320;-75
2021/01/15 08:09:05;;;;;;;19.92;13.38;;;2.20;99.90;;;;;;4896651;29;20651;-74
2021/01/15 08:11:38;;;;;;;22.30;15.00;;;2.20;99.90;;;;;;4893447;29;20206;-75
2021/01/15 08:14:14;;;;;;;23.50;14.82;;;2.10;99.90;;;;;;4898504;29;20941;-74
2021/01/15 08:16:48;;;;;;;23.05;15.15;;;2.20;99.90;;;;;;4875634;29;20199;-74
2021/01/15 08:19:22;;;;;;;21.55;14.35;;;2.20;99.90;;;;;;4885478;29;20238;-75
2021/01/15 08:21:55;;;;;;;22.63;15.35;;;2.20;99.90;;;;;;4905764;29;20219;-75
2021/01/15 08:24:28;;;;;;;24.90;15.73;;;2.20;99.90;;;;;;4890388;29;20222;-75
2021/01/15 08:27:01;;;;;;;26.88;16.60;;;2.20;99.90;;;;;;4879281;29;20234;-73
2021/01/15 08:29:35;;;;;;;26.20;16.83;;;2.20;99.90;;;;;;4888732;29;20545;-75
2021/01/15 08:32:08;;;;;;;23.27;16.85;;;2.20;99.90;;;;;;4886057;29;20213;-75
2021/01/15 08:34:41;;;;;;;30.98;17.55;;;2.20;99.90;;;;;;4906599;29;20200;-75
2021/01/15 08:37:17;;;;;;;26.60;18.45;;;2.20;99.90;;;;;;4901635;29;20607;-75
2021/01/15 08:39:50;;;;;;;25.33;17.20;;;2.20;99.90;;;;;;4908348;29;20188;-75
2021/01/15 08:42:23;;;;;;;23.40;15.07;;;2.20;99.90;;;;;;4882974;29;20706;-74
2021/01/15 08:44:57;;;;;;;26.33;15.57;;;2.20;99.90;;;;;;4903919;29;20259;-73
2021/01/15 08:47:33;;;;;;;26.38;17.25;;;2.20;99.90;;;;;;4910327;29;20317;-74
2021/01/15 08:50:01;;;;;;;26.10;16.02;;;2.20;99.90;;;;;;4909383;29;20196;-76
2021/01/15 08:52:34;;;;;;;24.13;16.95;;;2.20;99.90;;;;;;4892607;29;20216;-75
2021/01/15 08:55:09;;;;;;;27.35;16.40;;;2.20;99.90;;;;;;4911207;29;20573;-75
2021/01/15 08:57:42;;;;;;;28.75;16.90;;;2.20;99.90;;;;;;4913521;29;20195;-74
2021/01/15 09:00:18;;;;;;;23.85;15.77;;;2.30;99.90;;;;;;4913537;29;20194;-75
2021/01/15 09:02:53;;;;;;;28.20;17.75;;;2.30;99.90;;;;;;4896931;29;20243;-75
2021/01/15 09:05:27;;;;;;;25.75;17.17;;;2.30;99.90;;;;;;4915918;29;20191;-74
2021/01/15 09:08:03;;;;;;;24.30;14.88;;;2.30;99.90;;;;;;4915291;29;20322;-75
2021/01/15 09:10:36;;;;;;;25.42;15.95;;;2.40;99.90;;;;;;4894487;29;20194;-74
2021/01/15 09:13:09;;;;;;;22.15;14.02;;;2.30;99.90;;;;;;4914425;29;20231;-74
2021/01/15 09:15:41;;;;;;;27.33;15.18;;;2.40;99.90;;;;;;4909276;29;20200;-74
2021/01/15 09:18:14;;;;;;;26.27;15.82;;;2.40;99.90;;;;;;4911398;29;20290;-75
2021/01/15 09:20:47;;;;;;;24.70;15.82;;;2.40;99.90;;;;;;4913609;29;20202;-74
2021/01/15 09:23:20;;;;;;;26.60;16.10;;;2.40;99.90;;;;;;4913124;29;20212;-74
2021/01/15 09:25:46;;;;;;;27.00;15.23;;;2.50;99.90;;;;;;4907808;29;20222;-75
2021/01/15 09:28:19;;;;;;;23.40;14.57;;;2.50;99.90;;;;;;4910897;29;20252;-74
2021/01/15 09:30:46;;;;;;;22.25;14.13;;;2.60;99.90;;;;;;4917473;29;20197;-74
2021/01/15 09:33:18;;;;;;;21.17;13.40;;;2.50;99.90;;;;;;4909520;29;20303;-75
2021/01/15 09:35:53;;;;;;;25.35;12.73;;;2.60;99.90;;;;;;4910440;29;20199;-75
2021/01/15 09:38:26;;;;;;;21.17;13.55;;;2.60;99.90;;;;;;4905840;29;20206;-74
2021/01/15 09:40:52;;;;;;;18.88;12.70;;;2.60;99.90;;;;;;4912615;29;20297;-75
2021/01/15 09:43:24;;;;;;;19.00;12.20;;;2.70;99.90;;;;;;4912598;29;20306;-76
2021/01/15 09:45:57;;;;;;;19.17;13.07;;;2.70;99.90;;;;;;4914294;29;20721;-75
2021/01/15 09:48:30;;;;;;;23.30;15.50;;;2.70;99.90;;;;;;4912110;29;20782;-74
2021/01/15 09:51:03;;;;;;;29.02;16.98;;;2.80;99.90;;;;;;4913895;29;20209;-75
2021/01/15 09:53:30;;;;;;;25.90;17.88;;;2.90;99.90;;;;;;4912488;29;20733;-75
2021/01/15 09:56:02;;;;;;;28.88;18.27;;;2.90;99.90;;;;;;4909766;29;20238;-75
2021/01/15 09:58:34;;;;;;;25.65;17.65;;;2.90;99.90;;;;;;4909894;29;20188;-75
2021/01/15 10:01:07;;;;;;;26.30;17.55;;;3.00;99.90;;;;;;4912199;29;20555;-75
2021/01/15 10:03:39;;;;;;;21.35;16.02;;;3.00;99.90;;;;;;4911796;29;20732;-76
2021/01/15 10:06:15;;;;;;;35.55;19.00;;;3.10;99.90;;;;;;4912642;29;20195;-75
2021/01/15 10:08:48;;;;;;;32.15;19.75;;;3.10;99.90;;;;;;4913425;29;20206;-75
2021/01/15 10:11:20;;;;;;;28.13;17.50;;;3.20;99.90;;;;;;4914067;29;20206;-77
2021/01/15 10:13:54;;;;;;;31.80;19.00;;;3.20;99.90;;;;;;4914475;29;20875;-76
2021/01/15 10:16:27;;;;;;;29.92;16.95;;;3.20;99.90;;;;;;4896729;29;20192;-75
2021/01/15 10:19:00;;;;;;;27.38;17.58;;;3.20;99.90;;;;;;4891224;29;21359;-75
2021/01/15 10:21:35;;;;;;;25.85;17.10;;;3.20;99.90;;;;;;4909215;29;20699;-75
2021/01/15 10:24:08;;;;;;;29.23;17.05;;;3.20;99.90;;;;;;4911454;29;20198;-75
2021/01/15 10:26:41;;;;;;;30.88;18.40;;;3.20;99.90;;;;;;4912114;29;20192;-75
2021/01/15 10:29:15;;;;;;;31.85;18.27;;;3.20;99.90;;;;;;4912766;29;20287;-74
2021/01/15 10:31:50;;;;;;;26.85;16.88;;;3.20;99.90;;;;;;4912833;29;20318;-75
2021/01/15 10:34:24;;;;;;;26.42;16.50;;;3.30;99.90;;;;;;4896335;29;20203;-76
2021/01/15 10:36:57;;;;;;;32.05;18.15;;;3.20;99.90;;;;;;4895247;29;20603;-74
2021/01/15 10:39:30;;;;;;;26.92;17.13;;;3.20;99.90;;;;;;4896603;29;20195;-74
2021/01/15 10:41:56;;;;;;;26.42;16.30;;;3.20;99.90;;;;;;4909366;29;20314;-76
2021/01/15 10:44:27;;;;;;;26.23;16.17;;;3.20;99.90;;;;;;4907780;29;20218;-75
2021/01/15 10:46:59;;;;;;;23.45;14.98;;;3.20;99.90;;;;;;4907245;29;20212;-75
2021/01/15 10:49:32;;;;;;;24.25;14.85;;;3.20;99.90;;;;;;4911639;29;20195;-75
2021/01/15 10:52:07;;;;;;;23.70;14.73;;;3.20;99.90;;;;;;4912101;29;20512;-74
2021/01/15 10:54:39;;;;;;;22.83;14.05;;;3.20;99.90;;;;;;4913153;29;20676;-74
2021/01/15 10:57:12;;;;;;;25.95;16.05;;;3.10;99.90;;;;;;4912959;29;20243;-74
2021/01/15 10:59:44;;;;;;;29.35;18.17;;;3.10;99.90;;;;;;4913104;29;20204;-77
2021/01/15 11:02:17;;;;;;;27.90;14.98;;;3.00;99.90;;;;;;4912728;29;20215;-75
2021/01/15 11:04:49;;;;;;;24.75;15.57;;;3.10;99.90;;;;;;4906178;29;20263;-75
2021/01/15 11:07:23;;;;;;;27.30;15.57;;;3.10;99.90;;;;;;4908170;29;20223;-76
2021/01/15 11:09:55;;;;;;;25.55;16.38;;;3.10;99.90;;;;;;4904039;29;20189;-74
2021/01/15 11:12:28;;;;;;;27.05;16.73;;;3.20;99.90;;;;;;4911040;29;20278;-76
2021/01/15 11:15:00;;;;;;;28.13;17.35;;;3.20;99.90;;;;;;4906261;29;20637;-75
2021/01/15 11:17:36;;;;;;;29.98;17.08;;;3.20;99.90;;;;;;4912833;29;20200;-75
2021/01/15 11:20:09;;;;;;;27.92;16.60;;;3.20;99.90;;;;;;4913754;29;20601;-76
2021/01/15 11:22:44;;;;;;;25.23;17.00;;;3.10;99.90;;;;;;4914673;29;20306;-76
2021/01/15 11:25:17;;;;;;;31.23;17.30;;;3.10;99.90;;;;;;4900725;29;20291;-74
2021/01/15 11:27:49;;;;;;;25.75;16.25;;;3.20;99.90;;;;;;4908726;29;20228;-75
2021/01/15 11:30:22;;;;;;;33.13;16.27;;;3.30;99.90;;;;;;4907486;29;20200;-75
2021/01/15 11:32:57;;;;;;;28.83;17.38;;;3.20;99.90;;;;;;4911249;29;20315;-73
2021/01/15 11:35:23;;;;;;;31.13;17.55;;;3.30;99.90;;;;;;4914213;29;20196;-77
2021/01/15 11:37:57;;;;;;;29.70;16.05;;;3.30;99.90;;;;;;4912028;29;20671;-75
2021/01/15 11:40:30;;;;;;;24.38;13.88;;;3.20;99.90;;;;;;4912264;29;20203;-75
2021/01/15 11:42:57;;;;;;;26.42;17.52;;;3.30;99.90;;;;;;4918091;29;20221;-76
2021/01/15 11:45:30;;;;;;;26.90;15.93;;;3.30;99.90;;;;;;4914665;29;20409;-76
2021/01/15 11:48:03;;;;;;;28.40;17.15;;;3.30;99.90;;;;;;4919807;29;20230;-76
2021/01/15 11:50:30;;;;;;;29.23;16.15;;;3.30;99.90;;;;;;4910941;29;20203;-75
2021/01/15 11:53:03;;;;;;;28.95;17.85;;;3.30;99.90;;;;;;4910572;29;20216;-75
2021/01/15 11:55:30;;;;;;;30.95;16.92;;;3.30;99.90;;;;;;4914758;29;20192;-75
2021/01/15 11:58:02;;;;;;;33.95;17.38;;;3.30;99.90;;;;;;4914882;29;20279;-75
2021/01/15 12:00:35;;;;;;;29.83;17.13;;;3.30;99.90;;;;;;4915125;29;20199;-76
2021/01/15 12:03:07;;;;;;;25.13;15.63;;;3.30;99.90;;;;;;4915367;29;20228;-74
2021/01/15 12:05:41;;;;;;;30.85;17.85;;;3.20;99.90;;;;;;4915575;29;20286;-75
2021/01/15 12:08:14;;;;;;;28.77;16.38;;;3.30;99.90;;;;;;4915293;29;20224;-74
2021/01/15 12:10:48;;;;;;;25.05;15.32;;;3.20;99.90;;;;;;4916497;29;20211;-74
2021/01/15 12:13:21;;;;;;;25.02;15.38;;;3.30;99.90;;;;;;4893065;29;20220;-75
2021/01/15 12:16:00;;;;;;;24.77;15.13;;;3.30;99.90;;;;;;4909918;29;20192;-75
2021/01/15 12:18:33;;;;;;;25.90;16.00;;;3.30;99.90;;;;;;4914389;29;20203;-75
2021/01/15 12:21:05;;;;;;;25.33;16.20;;;3.30;99.90;;;;;;4908051;29;20247;-74
2021/01/15 12:23:39;;;;;;;27.23;16.08;;;3.30;99.90;;;;;;4919059;29;20219;-75
2021/01/15 12:26:05;;;;;;;23.92;14.98;;;3.20;99.90;;;;;;4906376;29;20203;-74
2021/01/15 12:28:32;;;;;;;24.92;14.48;;;3.20;99.90;;;;;;4903370;29;20331;-74
2021/01/15 12:31:05;;;;;;;24.45;14.57;;;3.30;99.90;;;;;;4913121;29;20192;-75
2021/01/15 12:33:31;;;;;;;24.10;15.07;;;3.30;99.90;;;;;;4913368;29;20893;-75
2021/01/15 12:36:04;;;;;;;21.38;12.85;;;3.30;99.90;;;;;;4913449;29;20556;-75
2021/01/15 12:38:38;;;;;;;24.63;14.85;;;3.30;99.90;;;;;;4915044;29;20214;-75
2021/01/15 12:41:10;;;;;;;23.33;14.80;;;3.30;99.90;;;;;;4909594;29;20290;-75
2021/01/15 12:43:43;;;;;;;23.08;14.32;;;3.40;99.90;;;;;;4915805;29;20279;-74
2021/01/15 12:46:11;;;;;;;23.90;14.20;;;3.40;99.90;;;;;;4915537;29;20206;-75
2021/01/15 12:48:43;;;;;;;21.08;13.45;;;3.40;99.90;;;;;;4895142;29;20228;-75
2021/01/15 12:51:16;;;;;;;20.00;13.35;;;3.50;99.90;;;;;;4909916;29;20255;-74
2021/01/15 12:53:50;;;;;;;21.60;13.20;;;3.50;99.90;;;;;;4901943;29;20231;-75
2021/01/15 12:56:23;;;;;;;17.98;12.75;;;3.50;99.90;;;;;;4894175;29;20204;-76
2021/01/15 12:58:55;;;;;;;17.70;10.75;;;3.60;99.90;;;;;;4894500;29;20197;-76
2021/01/15 13:01:36;;;;;;;19.10;12.02;;;3.50;99.90;;;;;;4897968;29;20215;-75
2021/01/15 13:04:04;;;;;;;22.42;12.02;;;3.60;99.90;;;;;;4894681;29;22284;-74
2021/01/15 13:06:35;;;;;;;15.60;10.57;;;3.60;99.90;;;;;;4899463;29;20196;-75
2021/01/15 13:09:10;;;;;;;20.17;11.77;;;3.70;99.90;;;;;;4893257;29;20204;-74
2021/01/15 13:11:43;;;;;;;17.58;11.15;;;3.70;99.90;;;;;;4888387;29;20291;-74
2021/01/15 13:14:15;;;;;;;21.67;11.32;;;3.70;99.90;;;;;;4893564;29;20848;-75
2021/01/15 13:16:48;;;;;;;16.17;11.35;;;3.70;99.90;;;;;;4894328;29;20196;-76
2021/01/15 13:19:21;;;;;;;14.82;10.60;;;3.70;99.90;;;;;;4880141;29;20203;-75